sensor_id;sensor_type;location;lat;lon;timestamp;P1;durP1;ratioP1;P2;durP2;ratioP2
25854;SDS011;13680;49.936;11.344;2024-02-21T00:00:14;25.02;;;5.53;;
25854;SDS011;13680;49.936;11.344;2024-02-21T00:02:40;18.40;;;4.43;;
25854;SDS011;13680;49.936;11.344;2024-02-21T00:05:06;17.48;;;4.72;;
25854;SDS011;13680;49.936;11.344;2024-02-21T00:07:31;18.02;;;4.50;;
25854;SDS011;13680;49.936;11.344;2024-02-21T00:09:56;20.90;;;5.05;;
25854;SDS011;13680;49.936;11.344;2024-02-21T00:12:22;17.05;;;5.10;;
25854;SDS011;13680;49.936;11.344;2024-02-21T00:14:47;16.58;;;5.53;;
25854;SDS011;13680;49.936;11.344;2024-02-21T00:17:13;20.17;;;5.85;;
25854;SDS011;13680;49.936;11.344;2024-02-21T00:19:38;21.92;;;5.47;;
25854;SDS011;13680;49.936;11.344;2024-02-21T00:22:03;20.92;;;6.53;;
25854;SDS011;13680;49.936;11.344;2024-02-21T00:24:29;25.13;;;4.95;;
25854;SDS011;13680;49.936;11.344;2024-02-21T00:26:54;17.83;;;5.03;;
25854;SDS011;13680;49.936;11.344;2024-02-21T00:29:19;17.08;;;5.32;;
25854;SDS011;13680;49.936;11.344;2024-02-21T00:31:45;28.60;;;6.55;;
25854;SDS011;13680;49.936;11.344;2024-02-21T00:34:10;13.00;;;4.55;;
25854;SDS011;13680;49.936;11.344;2024-02-21T00:36:37;16.63;;;4.38;;
25854;SDS011;13680;49.936;11.344;2024-02-21T00:39:02;21.67;;;5.20;;
25854;SDS011;13680;49.936;11.344;2024-02-21T00:41:28;17.55;;;5.28;;
25854;SDS011;13680;49.936;11.344;2024-02-21T00:43:53;18.98;;;4.97;;
25854;SDS011;13680;49.936;11.344;2024-02-21T00:46:18;22.10;;;5.35;;
25854;SDS011;13680;49.936;11.344;2024-02-21T00:48:43;22.17;;;5.30;;
25854;SDS011;13680;49.936;11.344;2024-02-21T00:51:09;23.60;;;5.07;;
25854;SDS011;13680;49.936;11.344;2024-02-21T00:53:34;15.35;;;5.22;;
25854;SDS011;13680;49.936;11.344;2024-02-21T00:56:03;21.83;;;5.30;;
25854;SDS011;13680;49.936;11.344;2024-02-21T00:58:30;16.80;;;5.20;;
25854;SDS011;13680;49.936;11.344;2024-02-21T01:00:55;21.17;;;4.57;;
25854;SDS011;13680;49.936;11.344;2024-02-21T01:03:20;18.90;;;5.35;;
25854;SDS011;13680;49.936;11.344;2024-02-21T01:05:46;18.17;;;4.65;;
25854;SDS011;13680;49.936;11.344;2024-02-21T01:08:11;21.55;;;5.53;;
25854;SDS011;13680;49.936;11.344;2024-02-21T01:10:36;17.80;;;4.63;;
25854;SDS011;13680;49.936;11.344;2024-02-21T01:13:02;16.33;;;4.80;;
25854;SDS011;13680;49.936;11.344;2024-02-21T01:15:27;19.55;;;5.28;;
25854;SDS011;13680;49.936;11.344;2024-02-21T01:17:53;16.13;;;4.97;;
25854;SDS011;13680;49.936;11.344;2024-02-21T01:20:20;16.92;;;5.18;;
25854;SDS011;13680;49.936;11.344;2024-02-21T01:22:46;17.17;;;4.90;;
25854;SDS011;13680;49.936;11.344;2024-02-21T01:25:11;22.77;;;5.10;;
25854;SDS011;13680;49.936;11.344;2024-02-21T01:27:37;19.80;;;5.03;;
25854;SDS011;13680;49.936;11.344;2024-02-21T01:30:02;19.25;;;5.13;;
25854;SDS011;13680;49.936;11.344;2024-02-21T01:32:28;20.52;;;5.22;;
25854;SDS011;13680;49.936;11.344;2024-02-21T01:34:53;18.00;;;4.88;;
25854;SDS011;13680;49.936;11.344;2024-02-21T01:37:18;26.10;;;6.22;;
25854;SDS011;13680;49.936;11.344;2024-02-21T01:39:44;15.82;;;5.10;;
25854;SDS011;13680;49.936;11.344;2024-02-21T01:42:09;15.13;;;4.82;;
25854;SDS011;13680;49.936;11.344;2024-02-21T01:44:34;20.50;;;4.95;;
25854;SDS011;13680;49.936;11.344;2024-02-21T01:47:00;17.42;;;5.00;;
25854;SDS011;13680;49.936;11.344;2024-02-21T01:49:26;23.85;;;5.82;;
25854;SDS011;13680;49.936;11.344;2024-02-21T01:51:51;27.70;;;5.78;;
25854;SDS011;13680;49.936;11.344;2024-02-21T01:54:18;18.30;;;5.45;;
25854;SDS011;13680;49.936;11.344;2024-02-21T01:56:44;21.70;;;5.00;;
25854;SDS011;13680;49.936;11.344;2024-02-21T01:59:11;17.92;;;5.22;;
25854;SDS011;13680;49.936;11.344;2024-02-21T02:01:38;19.63;;;5.45;;
25854;SDS011;13680;49.936;11.344;2024-02-21T02:04:04;19.42;;;5.50;;
25854;SDS011;13680;49.936;11.344;2024-02-21T02:06:31;22.52;;;5.43;;
25854;SDS011;13680;49.936;11.344;2024-02-21T02:08:56;16.73;;;4.88;;
25854;SDS011;13680;49.936;11.344;2024-02-21T02:11:22;21.55;;;5.07;;
25854;SDS011;13680;49.936;11.344;2024-02-21T02:13:48;19.00;;;4.65;;
25854;SDS011;13680;49.936;11.344;2024-02-21T02:16:13;18.95;;;5.25;;
25854;SDS011;13680;49.936;11.344;2024-02-21T02:18:38;20.23;;;5.47;;
25854;SDS011;13680;49.936;11.344;2024-02-21T02:21:04;19.42;;;5.72;;
25854;SDS011;13680;49.936;11.344;2024-02-21T02:23:38;23.30;;;4.90;;
25854;SDS011;13680;49.936;11.344;2024-02-21T02:26:05;25.77;;;5.38;;
25854;SDS011;13680;49.936;11.344;2024-02-21T02:28:32;23.40;;;6.15;;
25854;SDS011;13680;49.936;11.344;2024-02-21T02:30:57;25.73;;;5.63;;
25854;SDS011;13680;49.936;11.344;2024-02-21T02:33:23;15.73;;;5.80;;
25854;SDS011;13680;49.936;11.344;2024-02-21T02:35:48;20.08;;;5.25;;
25854;SDS011;13680;49.936;11.344;2024-02-21T02:38:14;20.00;;;5.07;;
25854;SDS011;13680;49.936;11.344;2024-02-21T02:40:40;22.10;;;5.60;;
25854;SDS011;13680;49.936;11.344;2024-02-21T02:43:06;28.73;;;4.97;;
25854;SDS011;13680;49.936;11.344;2024-02-21T02:45:32;23.60;;;5.88;;
25854;SDS011;13680;49.936;11.344;2024-02-21T02:47:58;20.48;;;5.25;;
25854;SDS011;13680;49.936;11.344;2024-02-21T02:50:23;16.63;;;5.13;;
25854;SDS011;13680;49.936;11.344;2024-02-21T02:52:49;22.17;;;5.32;;
25854;SDS011;13680;49.936;11.344;2024-02-21T02:55:15;20.65;;;5.03;;
25854;SDS011;13680;49.936;11.344;2024-02-21T02:57:40;19.42;;;5.60;;
25854;SDS011;13680;49.936;11.344;2024-02-21T03:00:07;21.17;;;5.25;;
25854;SDS011;13680;49.936;11.344;2024-02-21T03:02:33;19.98;;;5.45;;
25854;SDS011;13680;49.936;11.344;2024-02-21T03:04:58;14.40;;;5.10;;
25854;SDS011;13680;49.936;11.344;2024-02-21T03:07:24;26.38;;;5.75;;
25854;SDS011;13680;49.936;11.344;2024-02-21T03:09:50;24.77;;;6.53;;
25854;SDS011;13680;49.936;11.344;2024-02-21T03:12:16;26.35;;;5.13;;
25854;SDS011;13680;49.936;11.344;2024-02-21T03:14:50;21.25;;;5.35;;
25854;SDS011;13680;49.936;11.344;2024-02-21T03:17:15;20.42;;;6.22;;
25854;SDS011;13680;49.936;11.344;2024-02-21T03:19:41;19.15;;;5.55;;
25854;SDS011;13680;49.936;11.344;2024-02-21T03:22:06;24.45;;;5.25;;
25854;SDS011;13680;49.936;11.344;2024-02-21T03:24:32;23.80;;;6.10;;
25854;SDS011;13680;49.936;11.344;2024-02-21T03:26:58;20.55;;;5.70;;
25854;SDS011;13680;49.936;11.344;2024-02-21T03:29:24;19.58;;;6.20;;
25854;SDS011;13680;49.936;11.344;2024-02-21T03:31:50;23.73;;;5.57;;
25854;SDS011;13680;49.936;11.344;2024-02-21T03:34:15;28.55;;;6.10;;
25854;SDS011;13680;49.936;11.344;2024-02-21T03:36:40;16.13;;;4.80;;
25854;SDS011;13680;49.936;11.344;2024-02-21T03:39:06;18.85;;;5.80;;
25854;SDS011;13680;49.936;11.344;2024-02-21T03:41:33;25.45;;;5.53;;
25854;SDS011;13680;49.936;11.344;2024-02-21T03:43:58;23.80;;;5.63;;
25854;SDS011;13680;49.936;11.344;2024-02-21T03:46:24;17.65;;;4.90;;
25854;SDS011;13680;49.936;11.344;2024-02-21T03:48:50;16.75;;;5.10;;
25854;SDS011;13680;49.936;11.344;2024-02-21T03:51:15;22.15;;;5.03;;
25854;SDS011;13680;49.936;11.344;2024-02-21T03:53:40;22.23;;;5.20;;
25854;SDS011;13680;49.936;11.344;2024-02-21T03:56:06;20.48;;;5.50;;
25854;SDS011;13680;49.936;11.344;2024-02-21T03:58:32;20.20;;;6.20;;
25854;SDS011;13680;49.936;11.344;2024-02-21T04:00:59;21.58;;;5.25;;
25854;SDS011;13680;49.936;11.344;2024-02-21T04:03:25;22.00;;;5.93;;
25854;SDS011;13680;49.936;11.344;2024-02-21T04:05:50;14.05;;;4.70;;
25854;SDS011;13680;49.936;11.344;2024-02-21T04:08:16;23.30;;;5.68;;
25854;SDS011;13680;49.936;11.344;2024-02-21T04:10:41;16.88;;;4.93;;
25854;SDS011;13680;49.936;11.344;2024-02-21T04:13:07;22.70;;;5.43;;
25854;SDS011;13680;49.936;11.344;2024-02-21T04:15:32;21.90;;;5.65;;
25854;SDS011;13680;49.936;11.344;2024-02-21T04:17:58;20.50;;;5.65;;
25854;SDS011;13680;49.936;11.344;2024-02-21T04:20:23;23.77;;;6.07;;
25854;SDS011;13680;49.936;11.344;2024-02-21T04:22:49;22.00;;;5.40;;
25854;SDS011;13680;49.936;11.344;2024-02-21T04:25:14;23.88;;;5.80;;
25854;SDS011;13680;49.936;11.344;2024-02-21T04:27:40;27.38;;;5.68;;
25854;SDS011;13680;49.936;11.344;2024-02-21T04:30:06;22.88;;;5.78;;
25854;SDS011;13680;49.936;11.344;2024-02-21T04:32:32;22.05;;;6.05;;
25854;SDS011;13680;49.936;11.344;2024-02-21T04:34:57;23.85;;;6.40;;
25854;SDS011;13680;49.936;11.344;2024-02-21T04:37:23;24.67;;;6.47;;
25854;SDS011;13680;49.936;11.344;2024-02-21T04:39:49;20.73;;;5.88;;
25854;SDS011;13680;49.936;11.344;2024-02-21T04:42:15;26.83;;;6.20;;
25854;SDS011;13680;49.936;11.344;2024-02-21T04:44:40;31.20;;;7.15;;
25854;SDS011;13680;49.936;11.344;2024-02-21T04:47:06;19.30;;;5.45;;
25854;SDS011;13680;49.936;11.344;2024-02-21T04:49:32;16.27;;;5.45;;
25854;SDS011;13680;49.936;11.344;2024-02-21T04:51:58;27.13;;;6.20;;
25854;SDS011;13680;49.936;11.344;2024-02-21T04:54:23;20.83;;;6.25;;
25854;SDS011;13680;49.936;11.344;2024-02-21T04:56:49;20.00;;;5.50;;
25854;SDS011;13680;49.936;11.344;2024-02-21T04:59:14;15.95;;;5.47;;
25854;SDS011;13680;49.936;11.344;2024-02-21T05:01:39;16.40;;;6.60;;
25854;SDS011;13680;49.936;11.344;2024-02-21T05:04:05;20.08;;;6.50;;
25854;SDS011;13680;49.936;11.344;2024-02-21T05:06:30;15.75;;;5.75;;
25854;SDS011;13680;49.936;11.344;2024-02-21T05:08:56;21.60;;;6.50;;
25854;SDS011;13680;49.936;11.344;2024-02-21T05:11:22;28.27;;;7.32;;
25854;SDS011;13680;49.936;11.344;2024-02-21T05:13:48;22.80;;;6.38;;
25854;SDS011;13680;49.936;11.344;2024-02-21T05:16:13;21.02;;;6.30;;
25854;SDS011;13680;49.936;11.344;2024-02-21T05:18:40;19.60;;;5.93;;
25854;SDS011;13680;49.936;11.344;2024-02-21T05:21:05;17.40;;;5.82;;
25854;SDS011;13680;49.936;11.344;2024-02-21T05:23:31;14.73;;;5.57;;
25854;SDS011;13680;49.936;11.344;2024-02-21T05:25:56;18.85;;;5.95;;
25854;SDS011;13680;49.936;11.344;2024-02-21T05:28:22;28.88;;;6.05;;
25854;SDS011;13680;49.936;11.344;2024-02-21T05:30:47;25.25;;;5.90;;
25854;SDS011;13680;49.936;11.344;2024-02-21T05:33:13;23.73;;;6.10;;
25854;SDS011;13680;49.936;11.344;2024-02-21T05:35:45;20.38;;;5.57;;
25854;SDS011;13680;49.936;11.344;2024-02-21T05:38:11;19.65;;;6.50;;
25854;SDS011;13680;49.936;11.344;2024-02-21T05:40:37;20.45;;;6.15;;
25854;SDS011;13680;49.936;11.344;2024-02-21T05:43:02;21.40;;;6.78;;
25854;SDS011;13680;49.936;11.344;2024-02-21T05:45:27;18.42;;;6.55;;
25854;SDS011;13680;49.936;11.344;2024-02-21T05:47:53;17.45;;;5.60;;
25854;SDS011;13680;49.936;11.344;2024-02-21T05:50:18;27.23;;;6.75;;
25854;SDS011;13680;49.936;11.344;2024-02-21T05:52:44;23.48;;;6.75;;
25854;SDS011;13680;49.936;11.344;2024-02-21T05:55:09;17.92;;;5.95;;
25854;SDS011;13680;49.936;11.344;2024-02-21T05:57:34;22.58;;;6.13;;
25854;SDS011;13680;49.936;11.344;2024-02-21T05:59:59;24.83;;;6.85;;
25854;SDS011;13680;49.936;11.344;2024-02-21T06:02:25;24.98;;;7.22;;
25854;SDS011;13680;49.936;11.344;2024-02-21T06:04:50;17.15;;;6.07;;
25854;SDS011;13680;49.936;11.344;2024-02-21T06:07:15;21.70;;;6.38;;
25854;SDS011;13680;49.936;11.344;2024-02-21T06:09:41;27.23;;;6.10;;
25854;SDS011;13680;49.936;11.344;2024-02-21T06:12:06;21.27;;;7.22;;
25854;SDS011;13680;49.936;11.344;2024-02-21T06:14:31;25.90;;;6.65;;
25854;SDS011;13680;49.936;11.344;2024-02-21T06:16:57;25.70;;;6.57;;
25854;SDS011;13680;49.936;11.344;2024-02-21T06:19:22;29.20;;;6.28;;
25854;SDS011;13680;49.936;11.344;2024-02-21T06:21:47;19.73;;;6.57;;
25854;SDS011;13680;49.936;11.344;2024-02-21T06:24:13;22.40;;;7.20;;
25854;SDS011;13680;49.936;11.344;2024-02-21T06:26:39;20.33;;;6.47;;
25854;SDS011;13680;49.936;11.344;2024-02-21T06:29:05;20.95;;;7.15;;
25854;SDS011;13680;49.936;11.344;2024-02-21T06:31:31;20.80;;;6.28;;
25854;SDS011;13680;49.936;11.344;2024-02-21T06:33:56;14.75;;;6.57;;
25854;SDS011;13680;49.936;11.344;2024-02-21T06:36:22;18.88;;;7.13;;
25854;SDS011;13680;49.936;11.344;2024-02-21T06:38:48;23.40;;;7.00;;
25854;SDS011;13680;49.936;11.344;2024-02-21T06:41:16;21.73;;;7.43;;
25854;SDS011;13680;49.936;11.344;2024-02-21T06:43:44;20.80;;;7.63;;
25854;SDS011;13680;49.936;11.344;2024-02-21T06:46:10;27.10;;;7.43;;
25854;SDS011;13680;49.936;11.344;2024-02-21T06:48:36;25.70;;;7.88;;
25854;SDS011;13680;49.936;11.344;2024-02-21T06:51:01;19.13;;;7.00;;
25854;SDS011;13680;49.936;11.344;2024-02-21T06:53:26;17.27;;;6.90;;
25854;SDS011;13680;49.936;11.344;2024-02-21T06:55:51;24.58;;;7.95;;
25854;SDS011;13680;49.936;11.344;2024-02-21T06:58:17;22.50;;;7.80;;
25854;SDS011;13680;49.936;11.344;2024-02-21T07:00:42;21.45;;;7.63;;
25854;SDS011;13680;49.936;11.344;2024-02-21T07:03:08;22.38;;;7.82;;
25854;SDS011;13680;49.936;11.344;2024-02-21T07:05:33;26.38;;;8.55;;
25854;SDS011;13680;49.936;11.344;2024-02-21T07:07:59;30.75;;;7.72;;
25854;SDS011;13680;49.936;11.344;2024-02-21T07:10:24;28.80;;;8.38;;
25854;SDS011;13680;49.936;11.344;2024-02-21T07:12:49;21.75;;;7.60;;
25854;SDS011;13680;49.936;11.344;2024-02-21T07:15:17;16.17;;;7.32;;
25854;SDS011;13680;49.936;11.344;2024-02-21T07:17:42;22.73;;;9.07;;
25854;SDS011;13680;49.936;11.344;2024-02-21T07:20:08;21.77;;;8.13;;
25854;SDS011;13680;49.936;11.344;2024-02-21T07:22:33;23.85;;;7.68;;
25854;SDS011;13680;49.936;11.344;2024-02-21T07:24:59;21.70;;;8.13;;
25854;SDS011;13680;49.936;11.344;2024-02-21T07:27:24;33.30;;;13.98;;
25854;SDS011;13680;49.936;11.344;2024-02-21T07:29:53;25.02;;;8.88;;
25854;SDS011;13680;49.936;11.344;2024-02-21T07:32:19;20.80;;;7.78;;
25854;SDS011;13680;49.936;11.344;2024-02-21T07:34:44;22.58;;;8.48;;
25854;SDS011;13680;49.936;11.344;2024-02-21T07:37:09;23.02;;;7.70;;
25854;SDS011;13680;49.936;11.344;2024-02-21T07:39:38;29.95;;;11.25;;
25854;SDS011;13680;49.936;11.344;2024-02-21T07:42:03;18.42;;;7.65;;
25854;SDS011;13680;49.936;11.344;2024-02-21T07:44:29;27.38;;;9.10;;
25854;SDS011;13680;49.936;11.344;2024-02-21T07:46:54;24.85;;;8.35;;
25854;SDS011;13680;49.936;11.344;2024-02-21T07:49:19;25.80;;;7.90;;
25854;SDS011;13680;49.936;11.344;2024-02-21T07:51:44;21.27;;;7.22;;
25854;SDS011;13680;49.936;11.344;2024-02-21T07:54:10;22.92;;;7.28;;
25854;SDS011;13680;49.936;11.344;2024-02-21T07:56:35;21.10;;;7.55;;
25854;SDS011;13680;49.936;11.344;2024-02-21T07:59:00;19.92;;;7.75;;
25854;SDS011;13680;49.936;11.344;2024-02-21T08:01:26;22.77;;;7.25;;
25854;SDS011;13680;49.936;11.344;2024-02-21T08:03:51;16.60;;;6.15;;
25854;SDS011;13680;49.936;11.344;2024-02-21T08:06:18;22.80;;;7.18;;
25854;SDS011;13680;49.936;11.344;2024-02-21T08:08:43;20.27;;;7.03;;
25854;SDS011;13680;49.936;11.344;2024-02-21T08:11:08;22.40;;;7.43;;
25854;SDS011;13680;49.936;11.344;2024-02-21T08:13:34;18.88;;;7.25;;
25854;SDS011;13680;49.936;11.344;2024-02-21T08:15:59;24.13;;;7.63;;
25854;SDS011;13680;49.936;11.344;2024-02-21T08:18:25;19.15;;;6.05;;
25854;SDS011;13680;49.936;11.344;2024-02-21T08:20:50;21.98;;;6.55;;
25854;SDS011;13680;49.936;11.344;2024-02-21T08:23:16;19.52;;;7.03;;
25854;SDS011;13680;49.936;11.344;2024-02-21T08:25:42;18.30;;;6.28;;
25854;SDS011;13680;49.936;11.344;2024-02-21T08:28:07;20.38;;;6.50;;
25854;SDS011;13680;49.936;11.344;2024-02-21T08:30:33;21.55;;;7.13;;
25854;SDS011;13680;49.936;11.344;2024-02-21T08:32:59;19.52;;;6.70;;
25854;SDS011;13680;49.936;11.344;2024-02-21T08:35:24;16.40;;;6.25;;
25854;SDS011;13680;49.936;11.344;2024-02-21T08:37:49;20.70;;;6.22;;
25854;SDS011;13680;49.936;11.344;2024-02-21T08:40:15;22.63;;;9.77;;
25854;SDS011;13680;49.936;11.344;2024-02-21T08:42:46;16.77;;;6.63;;
25854;SDS011;13680;49.936;11.344;2024-02-21T08:45:11;16.92;;;6.40;;
25854;SDS011;13680;49.936;11.344;2024-02-21T08:47:39;16.10;;;6.43;;
25854;SDS011;13680;49.936;11.344;2024-02-21T08:50:05;18.10;;;6.40;;
25854;SDS011;13680;49.936;11.344;2024-02-21T08:52:31;15.40;;;5.80;;
25854;SDS011;13680;49.936;11.344;2024-02-21T08:54:57;18.60;;;6.60;;
25854;SDS011;13680;49.936;11.344;2024-02-21T08:57:22;20.33;;;6.25;;
25854;SDS011;13680;49.936;11.344;2024-02-21T08:59:48;22.17;;;6.18;;
25854;SDS011;13680;49.936;11.344;2024-02-21T09:02:13;15.32;;;6.20;;
25854;SDS011;13680;49.936;11.344;2024-02-21T09:04:41;17.60;;;5.85;;
25854;SDS011;13680;49.936;11.344;2024-02-21T09:07:06;14.45;;;6.45;;
25854;SDS011;13680;49.936;11.344;2024-02-21T09:09:31;17.45;;;5.65;;
25854;SDS011;13680;49.936;11.344;2024-02-21T09:11:58;22.98;;;7.20;;
25854;SDS011;13680;49.936;11.344;2024-02-21T09:14:30;18.98;;;6.32;;
25854;SDS011;13680;49.936;11.344;2024-02-21T09:16:55;22.55;;;6.90;;
25854;SDS011;13680;49.936;11.344;2024-02-21T09:19:21;18.35;;;6.60;;
25854;SDS011;13680;49.936;11.344;2024-02-21T09:21:46;20.95;;;6.43;;
25854;SDS011;13680;49.936;11.344;2024-02-21T09:24:12;17.38;;;5.70;;
25854;SDS011;13680;49.936;11.344;2024-02-21T09:26:37;20.13;;;6.13;;
25854;SDS011;13680;49.936;11.344;2024-02-21T09:29:02;15.15;;;5.95;;
25854;SDS011;13680;49.936;11.344;2024-02-21T09:31:29;20.40;;;5.97;;
25854;SDS011;13680;49.936;11.344;2024-02-21T09:33:54;22.27;;;6.90;;
25854;SDS011;13680;49.936;11.344;2024-02-21T09:36:19;22.60;;;5.88;;
25854;SDS011;13680;49.936;11.344;2024-02-21T09:38:46;20.30;;;6.13;;
25854;SDS011;13680;49.936;11.344;2024-02-21T09:41:15;25.88;;;6.65;;
25854;SDS011;13680;49.936;11.344;2024-02-21T09:43:44;16.40;;;5.63;;
25854;SDS011;13680;49.936;11.344;2024-02-21T09:46:15;14.77;;;5.72;;
25854;SDS011;13680;49.936;11.344;2024-02-21T09:51:38;19.77;;;5.45;;
25854;SDS011;13680;49.936;11.344;2024-02-21T09:54:05;15.35;;;4.70;;
25854;SDS011;13680;49.936;11.344;2024-02-21T09:56:32;18.88;;;5.28;;
25854;SDS011;13680;49.936;11.344;2024-02-21T09:58:57;17.63;;;5.60;;
25854;SDS011;13680;49.936;11.344;2024-02-21T10:01:23;15.23;;;4.72;;
25854;SDS011;13680;49.936;11.344;2024-02-21T10:03:48;13.23;;;4.50;;
25854;SDS011;13680;49.936;11.344;2024-02-21T10:06:14;14.73;;;4.68;;
25854;SDS011;13680;49.936;11.344;2024-02-21T10:08:40;14.57;;;4.57;;
25854;SDS011;13680;49.936;11.344;2024-02-21T10:11:05;17.10;;;5.13;;
25854;SDS011;13680;49.936;11.344;2024-02-21T10:13:31;20.45;;;4.85;;
25854;SDS011;13680;49.936;11.344;2024-02-21T10:16:06;14.00;;;4.20;;
25854;SDS011;13680;49.936;11.344;2024-02-21T10:18:33;14.75;;;4.70;;
25854;SDS011;13680;49.936;11.344;2024-02-21T10:23:41;15.48;;;3.97;;
25854;SDS011;13680;49.936;11.344;2024-02-21T10:26:10;13.70;;;3.33;;
25854;SDS011;13680;49.936;11.344;2024-02-21T10:28:36;10.15;;;3.53;;
25854;SDS011;13680;49.936;11.344;2024-02-21T10:31:03;11.13;;;3.88;;
25854;SDS011;13680;49.936;11.344;2024-02-21T10:33:28;15.68;;;3.72;;
25854;SDS011;13680;49.936;11.344;2024-02-21T10:36:05;14.77;;;3.08;;
25854;SDS011;13680;49.936;11.344;2024-02-21T10:38:35;13.88;;;4.07;;
25854;SDS011;13680;49.936;11.344;2024-02-21T10:41:06;13.02;;;3.72;;
25854;SDS011;13680;49.936;11.344;2024-02-21T10:43:38;14.52;;;3.70;;
25854;SDS011;13680;49.936;11.344;2024-02-21T10:46:06;17.58;;;3.75;;
25854;SDS011;13680;49.936;11.344;2024-02-21T10:48:38;16.55;;;3.25;;
25854;SDS011;13680;49.936;11.344;2024-02-21T10:51:17;12.45;;;3.78;;
25854;SDS011;13680;49.936;11.344;2024-02-21T10:56:39;10.25;;;3.10;;
25854;SDS011;13680;49.936;11.344;2024-02-21T10:59:06;13.40;;;3.22;;
25854;SDS011;13680;49.936;11.344;2024-02-21T11:01:32;8.60;;;2.83;;
25854;SDS011;13680;49.936;11.344;2024-02-21T11:04:04;11.93;;;3.38;;
25854;SDS011;13680;49.936;11.344;2024-02-21T11:06:32;13.50;;;3.15;;
25854;SDS011;13680;49.936;11.344;2024-02-21T11:11:34;10.98;;;3.15;;
25854;SDS011;13680;49.936;11.344;2024-02-21T11:14:26;10.82;;;3.13;;
25854;SDS011;13680;49.936;11.344;2024-02-21T11:16:52;10.35;;;2.50;;
25854;SDS011;13680;49.936;11.344;2024-02-21T11:19:21;8.70;;;2.60;;
25854;SDS011;13680;49.936;11.344;2024-02-21T11:21:48;10.38;;;2.70;;
25854;SDS011;13680;49.936;11.344;2024-02-21T11:24:25;17.67;;;2.95;;
25854;SDS011;13680;49.936;11.344;2024-02-21T11:29:40;12.57;;;3.13;;
25854;SDS011;13680;49.936;11.344;2024-02-21T11:32:16;13.23;;;3.03;;
25854;SDS011;13680;49.936;11.344;2024-02-21T11:34:58;10.07;;;2.60;;
25854;SDS011;13680;49.936;11.344;2024-02-21T11:37:31;12.57;;;2.67;;
25854;SDS011;13680;49.936;11.344;2024-02-21T11:40:04;11.00;;;3.40;;
25854;SDS011;13680;49.936;11.344;2024-02-21T11:42:32;10.18;;;2.97;;
25854;SDS011;13680;49.936;11.344;2024-02-21T11:44:57;8.52;;;2.70;;
25854;SDS011;13680;49.936;11.344;2024-02-21T11:47:23;10.10;;;3.13;;
25854;SDS011;13680;49.936;11.344;2024-02-21T11:49:49;10.38;;;2.70;;
25854;SDS011;13680;49.936;11.344;2024-02-21T11:52:19;14.48;;;3.30;;
25854;SDS011;13680;49.936;11.344;2024-02-21T11:54:47;14.43;;;2.55;;
25854;SDS011;13680;49.936;11.344;2024-02-21T11:57:13;7.75;;;2.60;;
25854;SDS011;13680;49.936;11.344;2024-02-21T11:59:39;6.07;;;2.53;;
25854;SDS011;13680;49.936;11.344;2024-02-21T12:02:05;9.60;;;2.47;;
25854;SDS011;13680;49.936;11.344;2024-02-21T12:04:31;16.20;;;3.25;;
25854;SDS011;13680;49.936;11.344;2024-02-21T12:06:57;10.65;;;2.40;;
25854;SDS011;13680;49.936;11.344;2024-02-21T12:09:23;14.13;;;3.00;;
25854;SDS011;13680;49.936;11.344;2024-02-21T12:11:59;10.25;;;2.80;;
25854;SDS011;13680;49.936;11.344;2024-02-21T12:14:29;7.47;;;2.60;;
25854;SDS011;13680;49.936;11.344;2024-02-21T12:16:55;10.55;;;2.80;;
25854;SDS011;13680;49.936;11.344;2024-02-21T12:19:21;9.50;;;3.00;;
25854;SDS011;13680;49.936;11.344;2024-02-21T12:21:47;11.68;;;3.10;;
25854;SDS011;13680;49.936;11.344;2024-02-21T12:24:15;13.32;;;2.60;;
25854;SDS011;13680;49.936;11.344;2024-02-21T12:26:43;13.40;;;3.85;;
25854;SDS011;13680;49.936;11.344;2024-02-21T12:29:08;8.65;;;2.60;;
25854;SDS011;13680;49.936;11.344;2024-02-21T12:31:37;8.65;;;2.47;;
25854;SDS011;13680;49.936;11.344;2024-02-21T12:34:03;6.78;;;2.22;;
25854;SDS011;13680;49.936;11.344;2024-02-21T12:36:30;11.30;;;2.45;;
25854;SDS011;13680;49.936;11.344;2024-02-21T12:38:58;9.05;;;2.97;;
25854;SDS011;13680;49.936;11.344;2024-02-21T12:41:25;8.20;;;2.35;;
25854;SDS011;13680;49.936;11.344;2024-02-21T12:43:52;11.32;;;2.20;;
25854;SDS011;13680;49.936;11.344;2024-02-21T12:46:17;9.88;;;2.20;;
25854;SDS011;13680;49.936;11.344;2024-02-21T12:48:43;6.07;;;1.83;;
25854;SDS011;13680;49.936;11.344;2024-02-21T12:51:08;8.60;;;2.45;;
25854;SDS011;13680;49.936;11.344;2024-02-21T12:53:33;9.00;;;2.35;;
25854;SDS011;13680;49.936;11.344;2024-02-21T12:55:59;5.53;;;1.90;;
25854;SDS011;13680;49.936;11.344;2024-02-21T12:58:25;10.10;;;2.42;;
25854;SDS011;13680;49.936;11.344;2024-02-21T13:00:50;11.55;;;1.95;;
25854;SDS011;13680;49.936;11.344;2024-02-21T13:03:15;5.90;;;1.90;;
25854;SDS011;13680;49.936;11.344;2024-02-21T13:05:41;8.20;;;2.67;;
25854;SDS011;13680;49.936;11.344;2024-02-21T13:08:06;7.13;;;2.05;;
25854;SDS011;13680;49.936;11.344;2024-02-21T13:10:32;7.97;;;2.00;;
25854;SDS011;13680;49.936;11.344;2024-02-21T13:13:01;8.50;;;2.40;;
25854;SDS011;13680;49.936;11.344;2024-02-21T13:15:27;8.38;;;2.13;;
25854;SDS011;13680;49.936;11.344;2024-02-21T13:17:53;6.63;;;1.92;;
25854;SDS011;13680;49.936;11.344;2024-02-21T13:20:19;6.25;;;1.92;;
25854;SDS011;13680;49.936;11.344;2024-02-21T13:22:45;11.57;;;2.42;;
25854;SDS011;13680;49.936;11.344;2024-02-21T13:25:11;8.02;;;1.80;;
25854;SDS011;13680;49.936;11.344;2024-02-21T13:27:40;8.75;;;2.55;;
25854;SDS011;13680;49.936;11.344;2024-02-21T13:30:06;9.20;;;2.10;;
25854;SDS011;13680;49.936;11.344;2024-02-21T13:32:33;8.60;;;2.45;;
25854;SDS011;13680;49.936;11.344;2024-02-21T13:34:59;9.88;;;2.00;;
25854;SDS011;13680;49.936;11.344;2024-02-21T13:37:26;7.55;;;1.98;;
25854;SDS011;13680;49.936;11.344;2024-02-21T13:39:52;6.05;;;2.00;;
25854;SDS011;13680;49.936;11.344;2024-02-21T13:42:17;8.98;;;2.42;;
25854;SDS011;13680;49.936;11.344;2024-02-21T13:44:42;10.10;;;2.20;;
25854;SDS011;13680;49.936;11.344;2024-02-21T13:47:08;7.60;;;2.40;;
25854;SDS011;13680;49.936;11.344;2024-02-21T13:49:34;7.35;;;2.08;;
25854;SDS011;13680;49.936;11.344;2024-02-21T13:52:00;5.97;;;1.80;;
25854;SDS011;13680;49.936;11.344;2024-02-21T13:54:26;10.30;;;1.92;;
25854;SDS011;13680;49.936;11.344;2024-02-21T13:56:51;8.68;;;2.10;;
25854;SDS011;13680;49.936;11.344;2024-02-21T13:59:16;6.13;;;2.20;;
25854;SDS011;13680;49.936;11.344;2024-02-21T14:01:43;9.70;;;2.38;;
25854;SDS011;13680;49.936;11.344;2024-02-21T14:04:08;9.43;;;2.35;;
25854;SDS011;13680;49.936;11.344;2024-02-21T14:06:33;7.95;;;2.53;;
25854;SDS011;13680;49.936;11.344;2024-02-21T14:08:59;7.78;;;2.22;;
25854;SDS011;13680;49.936;11.344;2024-02-21T14:11:24;13.00;;;2.83;;
25854;SDS011;13680;49.936;11.344;2024-02-21T14:13:50;9.63;;;2.35;;
25854;SDS011;13680;49.936;11.344;2024-02-21T14:16:15;7.43;;;2.30;;
25854;SDS011;13680;49.936;11.344;2024-02-21T14:18:41;7.82;;;2.53;;
25854;SDS011;13680;49.936;11.344;2024-02-21T14:21:07;9.15;;;2.50;;
25854;SDS011;13680;49.936;11.344;2024-02-21T14:23:33;8.05;;;2.10;;
25854;SDS011;13680;49.936;11.344;2024-02-21T14:25:59;10.18;;;2.42;;
25854;SDS011;13680;49.936;11.344;2024-02-21T14:28:24;8.27;;;1.80;;
25854;SDS011;13680;49.936;11.344;2024-02-21T14:30:50;5.10;;;2.10;;